Time;durP1;ratioP1;P1;durP2;ratioP2;P2;SDS_P1;SDS_P2;PMS_P1;PMS_P2;Temp;Humidity;BMP_temperature;BMP_pressure;BME280_temperature;BME280_humidity;BME280_pressure;Samples;Min_cycle;Max_cycle;Signal;HPM_P1;HPM_P2
2022/03/14 00:01:05;;;;;;;8.13;6.20;;;;;;;;;;5054152;28;20127;-73
2022/03/14 00:03:39;;;;;;;8.40;6.07;;;;;;;;;;5054269;28;20087;-75
2022/03/14 00:06:10;;;;;;;10.65;6.90;;;;;;;;;;5054330;28;20037;-74
2022/03/14 00:08:57;;;;;;;9.73;6.30;;;;;;;;;;5054144;28;20041;-75
2022/03/14 00:11:26;;;;;;;9.13;6.35;;;;;;;;;;5053605;28;20488;-75
2022/03/14 00:13:55;;;;;;;9.05;6.22;;;;;;;;;;5054125;28;20071;-78
2022/03/14 00:16:25;;;;;;;8.38;5.80;;;;;;;;;;5054226;28;20056;-75
2022/03/14 00:18:53;;;;;;;9.05;6.10;;;;;;;;;;5053224;28;20048;-78
2022/03/14 00:21:25;;;;;;;8.20;5.95;;;;;;;;;;5052934;28;20048;-74
2022/03/14 00:23:54;;;;;;;7.18;5.80;;;;;;;;;;5050360;28;20049;-75
2022/03/14 00:26:26;;;;;;;8.70;5.70;;;;;;;;;;5052614;28;20048;-73
2022/03/14 00:28:54;;;;;;;8.38;5.68;;;;;;;;;;5053733;28;20450;-73
2022/03/14 00:31:22;;;;;;;9.02;6.32;;;;;;;;;;5054083;28;20558;-75
2022/03/14 00:33:49;;;;;;;8.68;6.40;;;;;;;;;;5053968;28;20045;-73
2022/03/14 00:36:19;;;;;;;8.40;6.80;;;;;;;;;;5053644;28;20401;-74
2022/03/14 00:38:46;;;;;;;9.50;6.72;;;;;;;;;;5053599;28;20040;-72
2022/03/14 00:41:15;;;;;;;10.35;7.40;;;;;;;;;;5054032;28;20049;-75
2022/03/14 00:43:42;;;;;;;9.50;7.57;;;;;;;;;;5053861;28;20041;-78
2022/03/14 00:46:10;;;;;;;10.13;7.10;;;;;;;;;;5052393;28;20053;-78
2022/03/14 00:48:37;;;;;;;10.57;7.90;;;;;;;;;;5052364;28;20481;-74
2022/03/14 00:51:05;;;;;;;10.35;7.60;;;;;;;;;;5053491;28;20033;-73
2022/03/14 00:53:33;;;;;;;16.38;7.88;;;;;;;;;;5053766;28;20578;-75
2022/03/14 00:56:01;;;;;;;9.13;7.25;;;;;;;;;;5053572;28;20056;-74
2022/03/14 00:58:29;;;;;;;10.80;7.20;;;;;;;;;;5054087;28;20045;-73
2022/03/14 01:00:58;;;;;;;10.27;7.53;;;;;;;;;;5052544;28;20061;-74
2022/03/14 01:03:26;;;;;;;9.60;7.50;;;;;;;;;;5053400;28;20094;-73
2022/03/14 01:05:54;;;;;;;10.98;8.13;;;;;;;;;;5052122;28;20454;-73
2022/03/14 01:08:22;;;;;;;11.77;7.88;;;;;;;;;;5053388;28;20064;-72
2022/03/14 01:10:50;;;;;;;10.40;7.38;;;;;;;;;;5053287;28;20045;-78
2022/03/14 01:13:18;;;;;;;10.30;7.40;;;;;;;;;;5053249;28;20041;-73
2022/03/14 01:15:47;;;;;;;11.23;7.35;;;;;;;;;;5051618;28;20056;-77
2022/03/14 01:18:15;;;;;;;12.43;7.72;;;;;;;;;;5053334;28;20084;-75
2022/03/14 01:20:43;;;;;;;12.57;7.43;;;;;;;;;;5052948;28;20037;-72
2022/03/14 01:23:10;;;;;;;11.20;7.30;;;;;;;;;;5052324;28;20696;-78
2022/03/14 01:25:38;;;;;;;10.75;7.93;;;;;;;;;;5051686;28;20041;-73
2022/03/14 01:28:06;;;;;;;10.35;6.93;;;;;;;;;;5052756;28;20040;-72
2022/03/14 01:30:35;;;;;;;8.85;6.90;;;;;;;;;;5052444;28;20045;-74
2022/03/14 01:33:03;;;;;;;9.07;6.57;;;;;;;;;;5052274;28;20048;-73
2022/03/14 01:35:31;;;;;;;9.95;7.40;;;;;;;;;;5053108;28;20041;-74
2022/03/14 01:37:58;;;;;;;9.68;7.30;;;;;;;;;;5052730;28;20037;-74
2022/03/14 01:40:28;;;;;;;9.07;7.15;;;;;;;;;;5052634;28;20056;-72
2022/03/14 01:42:55;;;;;;;10.18;6.85;;;;;;;;;;5052826;28;20047;-76
2022/03/14 01:45:23;;;;;;;9.80;7.00;;;;;;;;;;5053369;28;20033;-78
2022/03/14 01:47:50;;;;;;;12.45;6.35;;;;;;;;;;5052897;28;20040;-73
2022/03/14 01:50:19;;;;;;;8.98;6.43;;;;;;;;;;5051372;28;20076;-78
2022/03/14 01:52:47;;;;;;;8.32;6.35;;;;;;;;;;5052387;28;20049;-76
2022/03/14 01:55:15;;;;;;;9.07;6.63;;;;;;;;;;5052781;28;20072;-73
2022/03/14 01:57:43;;;;;;;9.70;6.80;;;;;;;;;;5051636;28;20041;-73
2022/03/14 02:00:12;;;;;;;9.88;7.03;;;;;;;;;;5052203;28;20486;-77
2022/03/14 02:02:43;;;;;;;7.72;6.18;;;;;;;;;;5053008;28;20041;-72
2022/03/14 02:05:12;;;;;;;8.57;6.57;;;;;;;;;;5051481;28;20041;-74
2022/03/14 02:07:39;;;;;;;8.50;7.35;;;;;;;;;;5052444;28;20033;-73
2022/03/14 02:10:08;;;;;;;8.98;6.43;;;;;;;;;;5052739;28;20120;-73
2022/03/14 02:12:35;;;;;;;8.63;6.70;;;;;;;;;;5052625;28;20065;-72
2022/03/14 02:15:03;;;;;;;8.43;6.85;;;;;;;;;;5051194;28;20049;-72
2022/03/14 02:17:31;;;;;;;10.27;7.13;;;;;;;;;;5052361;28;20041;-73
2022/03/14 02:20:01;;;;;;;6.93;6.13;;;;;;;;;;5052500;28;20047;-74
2022/03/14 02:22:29;;;;;;;8.98;6.95;;;;;;;;;;5052713;28;20048;-73
2022/03/14 02:24:56;;;;;;;9.40;7.38;;;;;;;;;;5052210;28;20091;-75
2022/03/14 02:27:24;;;;;;;11.13;7.18;;;;;;;;;;5052270;28;20186;-78
2022/03/14 02:29:51;;;;;;;8.68;7.60;;;;;;;;;;5051235;28;20041;-73
2022/03/14 02:32:19;;;;;;;9.90;7.45;;;;;;;;;;5052740;28;20397;-75
2022/03/14 02:34:46;;;;;;;10.02;7.78;;;;;;;;;;5053221;28;20043;-73
2022/03/14 02:37:14;;;;;;;11.45;8.50;;;;;;;;;;5055390;28;20063;-78
2022/03/14 02:39:42;;;;;;;9.80;7.55;;;;;;;;;;5056153;28;20362;-72
2022/03/14 02:42:09;;;;;;;10.52;8.27;;;;;;;;;;5055392;28;20045;-73
2022/03/14 02:44:41;;;;;;;8.80;7.43;;;;;;;;;;5056478;28;20037;-73
2022/03/14 02:47:10;;;;;;;11.65;8.15;;;;;;;;;;5055809;28;20037;-75
2022/03/14 02:49:37;;;;;;;10.38;8.02;;;;;;;;;;5056077;28;20068;-73
2022/03/14 02:52:05;;;;;;;12.65;8.02;;;;;;;;;;5055508;28;20048;-73
2022/03/14 02:54:33;;;;;;;10.68;8.45;;;;;;;;;;5056002;28;20049;-75
2022/03/14 02:57:01;;;;;;;10.85;8.20;;;;;;;;;;5054521;28;20045;-78
2022/03/14 02:59:28;;;;;;;9.98;7.47;;;;;;;;;;5056072;28;20045;-72
2022/03/14 03:01:56;;;;;;;10.95;8.48;;;;;;;;;;5055832;28;20048;-78
2022/03/14 03:04:23;;;;;;;10.50;8.48;;;;;;;;;;5055721;28;20037;-73
2022/03/14 03:06:54;;;;;;;13.68;8.68;;;;;;;;;;5055862;28;20036;-73
2022/03/14 03:09:26;;;;;;;12.63;7.78;;;;;;;;;;5054536;28;20115;-78
2022/03/14 03:11:54;;;;;;;9.25;7.47;;;;;;;;;;5055669;28;20047;-72
2022/03/14 03:14:22;;;;;;;11.20;8.35;;;;;;;;;;5055598;28;20120;-73
2022/03/14 03:16:49;;;;;;;11.30;8.38;;;;;;;;;;5053775;28;20056;-77
2022/03/14 03:19:17;;;;;;;10.35;7.75;;;;;;;;;;5055416;28;20044;-76
2022/03/14 03:21:45;;;;;;;13.75;8.70;;;;;;;;;;5053958;28;20049;-75
2022/03/14 03:24:12;;;;;;;12.32;8.35;;;;;;;;;;5055808;28;20041;-72
2022/03/14 03:26:40;;;;;;;12.30;7.95;;;;;;;;;;5055051;28;20041;-75
2022/03/14 03:29:11;;;;;;;12.45;7.90;;;;;;;;;;5054862;28;20472;-73
2022/03/14 03:31:39;;;;;;;10.95;8.25;;;;;;;;;;5053657;28;20044;-73
2022/03/14 03:34:06;;;;;;;11.85;7.88;;;;;;;;;;5053706;28;20041;-72
2022/03/14 03:36:34;;;;;;;10.40;7.55;;;;;;;;;;5052848;28;20615;-77
2022/03/14 03:39:01;;;;;;;10.38;8.00;;;;;;;;;;5050547;28;20082;-78
2022/03/14 03:41:29;;;;;;;9.65;7.50;;;;;;;;;;5037131;28;20047;-73
2022/03/14 03:43:58;;;;;;;9.68;7.18;;;;;;;;;;5055326;28;20459;-74
2022/03/14 03:46:25;;;;;;;14.88;7.45;;;;;;;;;;5052782;28;20463;-73
2022/03/14 03:48:53;;;;;;;10.80;7.53;;;;;;;;;;5054597;28;20045;-73
2022/03/14 03:51:21;;;;;;;9.32;7.30;;;;;;;;;;5051980;28;20045;-78
2022/03/14 03:53:48;;;;;;;9.68;7.10;;;;;;;;;;5054205;28;20037;-78
2022/03/14 03:56:16;;;;;;;14.65;7.45;;;;;;;;;;5054493;28;20037;-74
2022/03/14 03:58:44;;;;;;;9.23;7.10;;;;;;;;;;5054715;28;20041;-72
2022/03/14 04:01:12;;;;;;;10.35;7.18;;;;;;;;;;5054484;28;20041;-72
2022/03/14 04:03:40;;;;;;;9.68;7.22;;;;;;;;;;5054134;28;20531;-72
2022/03/14 04:06:08;;;;;;;10.30;6.88;;;;;;;;;;5054543;28;20043;-73
2022/03/14 04:08:36;;;;;;;9.73;7.03;;;;;;;;;;5053128;28;20044;-73
2022/03/14 04:11:07;;;;;;;8.02;6.63;;;;;;;;;;5054675;28;20411;-74
2022/03/14 04:13:35;;;;;;;9.02;7.10;;;;;;;;;;5054526;28;20104;-75
2022/03/14 04:16:04;;;;;;;10.30;6.47;;;;;;;;;;5054015;28;20051;-73
2022/03/14 04:18:32;;;;;;;8.02;6.53;;;;;;;;;;5054219;28;20048;-73
2022/03/14 04:21:00;;;;;;;8.65;6.72;;;;;;;;;;5054479;28;20382;-74
2022/03/14 04:23:31;;;;;;;7.43;6.55;;;;;;;;;;5054502;28;20397;-75
2022/03/14 04:25:58;;;;;;;8.38;6.07;;;;;;;;;;5052782;28;20449;-72
2022/03/14 04:28:27;;;;;;;8.77;6.75;;;;;;;;;;5053709;28;20037;-73
2022/03/14 04:30:55;;;;;;;9.23;6.15;;;;;;;;;;5053988;28;20064;-77
2022/03/14 04:33:22;;;;;;;8.80;6.35;;;;;;;;;;5052676;28;20045;-73
2022/03/14 04:35:50;;;;;;;8.27;6.20;;;;;;;;;;5053507;28;20480;-78
2022/03/14 04:38:17;;;;;;;8.82;6.43;;;;;;;;;;5052730;28;20055;-73
2022/03/14 04:40:46;;;;;;;8.90;6.53;;;;;;;;;;5052433;28;20049;-75
2022/03/14 04:43:14;;;;;;;7.32;5.80;;;;;;;;;;5052841;28;20091;-75
2022/03/14 04:45:41;;;;;;;9.40;5.72;;;;;;;;;;5053583;28;20052;-73
2022/03/14 04:48:10;;;;;;;9.02;6.57;;;;;;;;;;5052621;28;20041;-75
2022/03/14 04:50:39;;;;;;;8.38;5.90;;;;;;;;;;5053937;28;20111;-72
2022/03/14 04:53:07;;;;;;;8.30;6.05;;;;;;;;;;5053178;28;20051;-72
2022/03/14 04:55:35;;;;;;;9.57;6.65;;;;;;;;;;5053799;28;20044;-77
2022/03/14 04:58:03;;;;;;;7.57;6.35;;;;;;;;;;5035678;28;20049;-75
2022/03/14 05:00:31;;;;;;;7.53;5.65;;;;;;;;;;5052533;28;20049;-77
2022/03/14 05:03:05;;;;;;;8.20;6.25;;;;;;;;;;5053309;28;20053;-74
2022/03/14 05:05:36;;;;;;;10.43;5.95;;;;;;;;;;5053379;28;20051;-75
2022/03/14 05:08:04;;;;;;;8.27;6.35;;;;;;;;;;5052071;28;20377;-74
2022/03/14 05:10:32;;;;;;;7.47;5.55;;;;;;;;;;5053257;28;20659;-76
2022/03/14 05:13:00;;;;;;;11.95;6.22;;;;;;;;;;5053070;28;20073;-76
2022/03/14 05:15:29;;;;;;;9.43;6.25;;;;;;;;;;5053172;28;20045;-75
2022/03/14 05:18:01;;;;;;;8.73;6.30;;;;;;;;;;5053398;28;20043;-78
2022/03/14 05:20:28;;;;;;;8.80;6.78;;;;;;;;;;5053214;28;20045;-72
2022/03/14 05:22:57;;;;;;;8.40;6.32;;;;;;;;;;5053494;28;20534;-75
2022/03/14 05:25:26;;;;;;;9.43;6.32;;;;;;;;;;5051629;28;20463;-75
2022/03/14 05:27:53;;;;;;;9.05;6.45;;;;;;;;;;5051706;28;20390;-73
2022/03/14 05:30:22;;;;;;;8.30;6.55;;;;;;;;;;5052973;28;20076;-75
2022/03/14 05:32:55;;;;;;;9.75;6.80;;;;;;;;;;5052902;28;20040;-73
2022/03/14 05:35:23;;;;;;;9.50;6.32;;;;;;;;;;5052241;28;20049;-78
2022/03/14 05:37:51;;;;;;;9.15;6.22;;;;;;;;;;5052500;28;20064;-73
2022/03/14 05:40:20;;;;;;;8.80;6.97;;;;;;;;;;5052767;28;20549;-73
2022/03/14 05:42:49;;;;;;;9.27;6.28;;;;;;;;;;5051769;28;20396;-72
2022/03/14 05:45:17;;;;;;;9.90;6.13;;;;;;;;;;5051537;28;20048;-75
2022/03/14 05:47:46;;;;;;;9.88;6.65;;;;;;;;;;5052573;28;20047;-75
2022/03/14 05:50:13;;;;;;;9.50;6.45;;;;;;;;;;5052968;28;20037;-74
2022/03/14 05:52:41;;;;;;;8.35;6.68;;;;;;;;;;5052394;28;20047;-74
2022/03/14 05:55:09;;;;;;;9.25;7.38;;;;;;;;;;5053122;28;20045;-75
2022/03/14 05:57:37;;;;;;;11.57;7.50;;;;;;;;;;5051741;28;20132;-74
2022/03/14 06:00:05;;;;;;;10.77;7.10;;;;;;;;;;5051376;28;20393;-74
2022/03/14 06:02:45;;;;;;;8.82;7.32;;;;;;;;;;5053302;28;20358;-74
2022/03/14 06:05:13;;;;;;;12.32;7.40;;;;;;;;;;5051297;28;20037;-74
2022/03/14 06:07:41;;;;;;;10.02;7.15;;;;;;;;;;5051993;28;20037;-78
2022/03/14 06:10:09;;;;;;;15.80;8.10;;;;;;;;;;5052932;28;20033;-74
2022/03/14 06:12:37;;;;;;;10.48;7.30;;;;;;;;;;5056498;28;20511;-77
2022/03/14 06:15:10;;;;;;;9.35;7.13;;;;;;;;;;5037900;28;20056;-78
2022/03/14 06:17:37;;;;;;;;;;;;;;;;;;5055323;28;20432;-74
2022/03/14 06:20:05;;;;;;;12.32;7.10;;;;;;;;;;5055467;28;19921;-74
2022/03/14 06:22:37;;;;;;;11.93;6.85;;;;;;;;;;5054544;28;20128;-74
2022/03/14 06:25:05;;;;;;;12.00;6.97;;;;;;;;;;5056306;28;20037;-74
2022/03/14 06:27:35;;;;;;;11.05;6.55;;;;;;;;;;5056278;28;20403;-74
2022/03/14 06:30:04;;;;;;;9.38;6.30;;;;;;;;;;5055745;28;20056;-75
2022/03/14 06:32:35;;;;;;;9.23;6.20;;;;;;;;;;5054923;28;20033;-76
2022/03/14 06:35:04;;;;;;;9.52;6.63;;;;;;;;;;5056041;28;20048;-78
2022/03/14 06:37:31;;;;;;;8.45;6.18;;;;;;;;;;5055059;28;20041;-75
2022/03/14 06:39:59;;;;;;;7.47;6.45;;;;;;;;;;5054879;28;20051;-74
2022/03/14 06:42:27;;;;;;;9.35;6.32;;;;;;;;;;5056487;28;20467;-77
2022/03/14 06:44:55;;;;;;;7.35;6.07;;;;;;;;;;5055977;28;20040;-79
2022/03/14 06:47:23;;;;;;;6.35;4.90;;;;;;;;;;5056001;28;20041;-75
2022/03/14 06:49:51;;;;;;;6.18;5.45;;;;;;;;;;5054541;28;20480;-74
2022/03/14 06:52:19;;;;;;;9.43;5.30;;;;;;;;;;5055760;28;20464;-74
2022/03/14 06:54:46;;;;;;;6.95;5.35;;;;;;;;;;5056112;28;20053;-74
2022/03/14 06:57:14;;;;;;;9.57;6.15;;;;;;;;;;5055713;28;20045;-78
2022/03/14 06:59:41;;;;;;;10.65;6.38;;;;;;;;;;5056046;28;20501;-74
2022/03/14 07:02:09;;;;;;;7.60;5.43;;;;;;;;;;5056001;28;20041;-74
2022/03/14 07:04:37;;;;;;;9.82;5.40;;;;;;;;;;5054812;28;20047;-74
2022/03/14 07:07:05;;;;;;;11.60;7.22;;;;;;;;;;5055211;28;20501;-74
2022/03/14 07:09:35;;;;;;;15.23;8.23;;;;;;;;;;5055391;28;20037;-74
2022/03/14 07:12:03;;;;;;;13.38;7.75;;;;;;;;;;5055444;28;20544;-74
2022/03/14 07:14:31;;;;;;;7.85;6.25;;;;;;;;;;5141882;22;20052;-67
2022/03/14 07:16:58;;;;;;;6.50;4.43;;;;;;;;;;5027261;28;20041;-67
2022/03/14 07:19:26;;;;;;;8.93;4.75;;;;;;;;;;5033940;28;20428;-68
2022/03/14 07:21:53;;;;;;;8.82;5.82;;;;;;;;;;5033964;28;20042;-69
2022/03/14 07:24:21;;;;;;;7.53;6.40;;;;;;;;;;5034937;28;20045;-68
2022/03/14 07:26:49;;;;;;;6.47;5.57;;;;;;;;;;5035105;28;20041;-68
2022/03/14 07:29:16;;;;;;;4.57;4.10;;;;;;;;;;5034964;28;20049;-70
2022/03/14 07:31:45;;;;;;;6.95;4.78;;;;;;;;;;5046677;28;20432;-69
2022/03/14 07:34:12;;;;;;;9.02;5.65;;;;;;;;;;5033656;28;20049;-68
2022/03/14 07:36:42;;;;;;;5.68;4.40;;;;;;;;;;5034986;28;20084;-70
2022/03/14 07:39:09;;;;;;;3.63;3.22;;;;;;;;;;5034651;28;20068;-69
2022/03/14 07:41:37;;;;;;;9.80;4.47;;;;;;;;;;5034839;28;20046;-68
2022/03/14 07:44:05;;;;;;;9.93;4.45;;;;;;;;;;5033551;28;20164;-69
2022/03/14 07:46:34;;;;;;;5.28;4.05;;;;;;;;;;5033506;28;20072;-68
2022/03/14 07:49:02;;;;;;;8.07;3.10;;;;;;;;;;5034722;28;20048;-68
2022/03/14 07:51:30;;;;;;;8.00;3.50;;;;;;;;;;5033267;28;20420;-71
2022/03/14 07:53:57;;;;;;;5.63;2.90;;;;;;;;;;5034871;28;20062;-71
2022/03/14 07:56:25;;;;;;;8.25;3.88;;;;;;;;;;5034778;28;20511;-71
2022/03/14 07:58:52;;;;;;;3.97;2.58;;;;;;;;;;5034945;28;20068;-68
2022/03/14 08:01:20;;;;;;;6.78;3.45;;;;;;;;;;5035038;28;20068;-72
2022/03/14 08:03:48;;;;;;;7.50;3.67;;;;;;;;;;5033895;28;20037;-69
2022/03/14 08:06:22;;;;;;;3.75;3.35;;;;;;;;;;5034410;28;20042;-69
2022/03/14 08:08:50;;;;;;;8.90;4.15;;;;;;;;;;5033262;28;20065;-70
2022/03/14 08:11:18;;;;;;;5.22;3.30;;;;;;;;;;5034609;28;20049;-71
2022/03/14 08:13:45;;;;;;;7.03;3.35;;;;;;;;;;5034508;28;20041;-71
2022/03/14 08:16:14;;;;;;;4.10;3.00;;;;;;;;;;5048166;28;20049;-71
2022/03/14 08:18:41;;;;;;;5.20;3.47;;;;;;;;;;5054322;28;20043;-71
2022/03/14 08:21:09;;;;;;;3.65;3.20;;;;;;;;;;5053881;28;20055;-71
2022/03/14 08:23:36;;;;;;;4.72;2.85;;;;;;;;;;5053810;28;20037;-71
2022/03/14 08:26:05;;;;;;;7.65;4.03;;;;;;;;;;5053896;28;20041;-71
2022/03/14 08:28:34;;;;;;;6.90;3.90;;;;;;;;;;5053621;28;20087;-68
2022/03/14 08:31:01;;;;;;;5.63;3.20;;;;;;;;;;5053795;28;20037;-71
2022/03/14 08:33:29;;;;;;;5.95;3.70;;;;;;;;;;5019689;28;20411;-69
2022/03/14 08:36:00;;;;;;;6.43;3.40;;;;;;;;;;5053699;28;20492;-71
2022/03/14 08:38:28;;;;;;;6.15;3.53;;;;;;;;;;5054184;28;20056;-69
2022/03/14 08:40:56;;;;;;;7.15;3.75;;;;;;;;;;5053674;28;20040;-71
2022/03/14 08:43:24;;;;;;;5.20;3.38;;;;;;;;;;5053740;28;20048;-69
2022/03/14 08:45:53;;;;;;;5.45;2.78;;;;;;;;;;5035740;28;20037;-71
2022/03/14 08:48:22;;;;;;;3.58;2.90;;;;;;;;;;5053395;28;20041;-68
2022/03/14 08:50:50;;;;;;;6.53;2.83;;;;;;;;;;5053440;28;20132;-68
2022/03/14 08:53:17;;;;;;;3.33;3.00;;;;;;;;;;5053059;28;20548;-71
2022/03/14 08:55:45;;;;;;;3.17;2.90;;;;;;;;;;5053416;28;20527;-69
2022/03/14 08:58:14;;;;;;;4.72;3.13;;;;;;;;;;5035461;28;20045;-71
2022/03/14 09:00:41;;;;;;;6.18;2.90;;;;;;;;;;5035756;28;20500;-69
2022/03/14 09:03:09;;;;;;;5.57;3.17;;;;;;;;;;5053228;28;20484;-71
2022/03/14 09:05:37;;;;;;;7.05;2.95;;;;;;;;;;5052242;28;20144;-71
2022/03/14 09:08:07;;;;;;;2.63;2.42;;;;;;;;;;5053538;28;20373;-71
2022/03/14 09:10:37;;;;;;;6.22;3.38;;;;;;;;;;5053185;28;20037;-68
2022/03/14 09:13:05;;;;;;;6.70;3.15;;;;;;;;;;5052907;28;20047;-71
2022/03/14 09:15:33;;;;;;;5.70;2.90;;;;;;;;;;5053107;28;20064;-68
2022/03/14 09:18:03;;;;;;;7.43;2.90;;;;;;;;;;5053464;28;20552;-69
2022/03/14 09:20:31;;;;;;;2.50;2.03;;;;;;;;;;5053480;28;20107;-68
2022/03/14 09:23:03;;;;;;;7.25;2.30;;;;;;;;;;5035541;28;20543;-70
2022/03/14 09:25:31;;;;;;;3.72;2.17;;;;;;;;;;5052600;28;20044;-68
2022/03/14 09:28:01;;;;;;;7.57;3.30;;;;;;;;;;5034948;28;20052;-68
2022/03/14 09:30:28;;;;;;;7.65;2.65;;;;;;;;;;5052810;28;20041;-68
2022/03/14 09:32:57;;;;;;;3.30;2.80;;;;;;;;;;5035027;28;20045;-69
2022/03/14 09:35:25;;;;;;;4.03;2.97;;;;;;;;;;5053074;28;20033;-68
2022/03/14 09:37:54;;;;;;;3.70;2.97;;;;;;;;;;5052927;28;20136;-69
2022/03/14 09:40:23;;;;;;;5.13;3.30;;;;;;;;;;5052501;28;20045;-69
2022/03/14 09:42:52;;;;;;;5.80;3.30;;;;;;;;;;5034595;28;20478;-72
2022/03/14 09:45:20;;;;;;;4.70;2.95;;;;;;;;;;5051723;28;20057;-71
2022/03/14 09:47:51;;;;;;;2.40;2.20;;;;;;;;;;5052699;28;20038;-70
2022/03/14 09:50:39;;;;;;;3.70;2.40;;;;;;;;;;5052849;28;20048;-69
2022/03/14 09:53:10;;;;;;;4.35;3.17;;;;;;;;;;5052308;28;20094;-69
2022/03/14 09:55:42;;;;;;;3.35;2.38;;;;;;;;;;5052431;28;20052;-71
2022/03/14 09:58:10;;;;;;;3.08;2.78;;;;;;;;;;5052600;28;20045;-71
2022/03/14 10:00:41;;;;;;;2.83;2.60;;;;;;;;;;5052982;28;20136;-69
2022/03/14 10:03:14;;;;;;;3.25;2.50;;;;;;;;;;5052610;28;20037;-68
2022/03/14 10:05:42;;;;;;;3.42;2.60;;;;;;;;;;5051906;28;20033;-68
2022/03/14 10:08:10;;;;;;;5.55;2.90;;;;;;;;;;5034646;28;20119;-68
2022/03/14 10:10:45;;;;;;;3.58;3.17;;;;;;;;;;5052536;28;20071;-68
2022/03/14 10:13:34;;;;;;;7.20;3.40;;;;;;;;;;5052594;28;20049;-71
2022/03/14 10:16:03;;;;;;;3.28;2.97;;;;;;;;;;5052026;28;20511;-71
2022/03/14 10:18:36;;;;;;;3.60;2.90;;;;;;;;;;5034813;28;20463;-69
2022/03/14 10:21:11;;;;;;;7.05;3.50;;;;;;;;;;5052404;28;20041;-68
2022/03/14 10:23:43;;;;;;;3.78;2.97;;;;;;;;;;5044076;28;20037;-71
2022/03/14 10:26:11;;;;;;;6.00;3.20;;;;;;;;;;5032313;28;20038;-69
2022/03/14 10:28:40;;;;;;;4.85;3.22;;;;;;;;;;5032393;28;20124;-68
2022/03/14 10:31:31;;;;;;;3.90;3.30;;;;;;;;;;5032418;28;20033;-71
2022/03/14 10:34:04;;;;;;;3.40;3.10;;;;;;;;;;5032155;28;20041;-71
2022/03/14 10:36:45;;;;;;;4.20;3.50;;;;;;;;;;5032562;28;20059;-69
2022/03/14 10:39:19;;;;;;;7.47;3.90;;;;;;;;;;5031498;28;20049;-69
2022/03/14 10:42:07;;;;;;;9.15;4.13;;;;;;;;;;5032102;28;20095;-71
2022/03/14 10:44:55;;;;;;;6.38;4.05;;;;;;;;;;5032105;28;20523;-71
2022/03/14 10:48:05;;;;;;;9.43;4.22;;;;;;;;;;5031562;28;20069;-71
2022/03/14 10:50:39;;;;;;;8.40;4.63;;;;;;;;;;5029041;28;20416;-69
2022/03/14 10:53:06;;;;;;;;;;;;;;;;;;5032033;28;20111;-68
2022/03/14 10:55:38;;;;;;;6.32;3.58;;;;;;;;;;5032208;28;19921;-71
2022/03/14 10:58:16;;;;;;;7.90;4.25;;;;;;;;;;5018251;28;20145;-69
2022/03/14 11:00:49;;;;;;;8.00;3.80;;;;;;;;;;5034274;28;20048;-71
2022/03/14 11:03:41;;;;;;;4.80;3.80;;;;;;;;;;5035441;28;20065;-69
2022/03/14 11:06:17;;;;;;;5.25;3.53;;;;;;;;;;5031099;28;20052;-73
2022/03/14 11:08:47;;;;;;;8.82;3.50;;;;;;;;;;5035424;28;20061;-72
2022/03/14 11:11:24;;;;;;;7.07;3.50;;;;;;;;;;5034632;28;20056;-69
2022/03/14 11:13:52;;;;;;;5.38;3.63;;;;;;;;;;5034946;28;20055;-69
2022/03/14 11:16:25;;;;;;;7.15;3.58;;;;;;;;;;5034447;28;20140;-69
2022/03/14 11:18:54;;;;;;;5.65;3.88;;;;;;;;;;5035745;28;20053;-71
2022/03/14 11:21:24;;;;;;;6.30;3.70;;;;;;;;;;5035279;28;20064;-68
2022/03/14 11:23:53;;;;;;;7.53;3.83;;;;;;;;;;5035136;28;20104;-68
2022/03/14 11:26:22;;;;;;;7.53;3.70;;;;;;;;;;5034986;28;20046;-71
2022/03/14 11:28:50;;;;;;;7.35;4.10;;;;;;;;;;5034643;28;20046;-69
2022/03/14 11:31:21;;;;;;;9.02;4.60;;;;;;;;;;5035161;28;20064;-70
2022/03/14 11:33:50;;;;;;;8.68;4.50;;;;;;;;;;5034907;28;20041;-71
2022/03/14 11:36:22;;;;;;;10.10;5.57;;;;;;;;;;5034876;28;20056;-68
2022/03/14 11:38:49;;;;;;;13.05;7.78;;;;;;;;;;5035021;28;20410;-68
2022/03/14 11:41:18;;;;;;;6.18;4.03;;;;;;;;;;5033267;28;20049;-68
2022/03/14 11:43:48;;;;;;;9.60;5.03;;;;;;;;;;5034912;28;20111;-71
2022/03/14 11:46:37;;;;;;;10.20;5.57;;;;;;;;;;5034741;28;20543;-69
2022/03/14 11:49:11;;;;;;;8.02;5.43;;;;;;;;;;5035340;28;20065;-71
2022/03/14 11:51:41;;;;;;;5.72;4.95;;;;;;;;;;5033410;28;20053;-69
2022/03/14 11:54:13;;;;;;;12.80;5.00;;;;;;;;;;5033523;28;20053;-68
2022/03/14 11:56:56;;;;;;;7.18;4.35;;;;;;;;;;5034762;28;20420;-71
2022/03/14 11:59:31;;;;;;;6.07;4.38;;;;;;;;;;5032643;28;20444;-71
2022/03/14 12:02:00;;;;;;;7.38;4.47;;;;;;;;;;5034737;28;20489;-70
2022/03/14 12:04:31;;;;;;;8.60;4.70;;;;;;;;;;5034176;28;20053;-68
2022/03/14 12:07:03;;;;;;;12.18;5.63;;;;;;;;;;5033696;28;20049;-70
2022/03/14 12:09:34;;;;;;;6.53;4.63;;;;;;;;;;5033535;28;20472;-71
2022/03/14 12:12:17;;;;;;;12.13;4.65;;;;;;;;;;5033047;28;20488;-68
2022/03/14 12:14:46;;;;;;;7.43;4.13;;;;;;;;;;5034048;28;20038;-69
2022/03/14 12:17:14;;;;;;;11.07;4.65;;;;;;;;;;5034192;28;20048;-69
2022/03/14 12:19:44;;;;;;;7.82;4.75;;;;;;;;;;5034474;28;20549;-69
2022/03/14 12:22:16;;;;;;;14.35;4.80;;;;;;;;;;5034279;28;20041;-72
2022/03/14 12:24:45;;;;;;;6.93;4.53;;;;;;;;;;5034022;28;20049;-73
2022/03/14 12:27:22;;;;;;;6.18;4.63;;;;;;;;;;5033919;28;20050;-70
2022/03/14 12:29:50;;;;;;;7.15;4.43;;;;;;;;;;5032643;28;20112;-70
2022/03/14 12:32:27;;;;;;;6.65;4.60;;;;;;;;;;5034006;28;20038;-70
2022/03/14 12:34:56;;;;;;;7.60;4.60;;;;;;;;;;5051932;28;20052;-69
2022/03/14 12:37:28;;;;;;;5.47;4.25;;;;;;;;;;5053275;28;20056;-72
2022/03/14 12:39:55;;;;;;;9.73;4.93;;;;;;;;;;5050558;28;20476;-70
2022/03/14 12:42:26;;;;;;;6.60;4.43;;;;;;;;;;5053233;28;20041;-67
2022/03/14 12:45:13;;;;;;;6.13;4.10;;;;;;;;;;5053086;28;20041;-71
2022/03/14 12:48:14;;;;;;;12.77;4.60;;;;;;;;;;5052571;28;20041;-72
2022/03/14 12:50:52;;;;;;;5.70;4.45;;;;;;;;;;5015481;28;20052;-70
2022/03/14 12:53:29;;;;;;;8.10;4.25;;;;;;;;;;5068091;28;20553;-70
2022/03/14 12:55:59;;;;;;;7.13;4.78;;;;;;;;;;5068008;28;20135;-72
2022/03/14 12:58:34;;;;;;;7.25;4.10;;;;;;;;;;5072441;28;20045;-71
2022/03/14 13:01:04;;;;;;;9.25;4.80;;;;;;;;;;5054874;28;20487;-72
2022/03/14 13:03:35;;;;;;;8.10;4.60;;;;;;;;;;5072387;28;20055;-72
2022/03/14 13:06:05;;;;;;;11.82;4.70;;;;;;;;;;5072614;28;20115;-72
2022/03/14 13:08:44;;;;;;;12.40;4.80;;;;;;;;;;5055096;28;20029;-72
2022/03/14 13:11:17;;;;;;;7.85;3.75;;;;;;;;;;5067530;28;20033;-71
2022/03/14 13:13:44;;;;;;;5.28;3.78;;;;;;;;;;5072723;28;20041;-69
2022/03/14 13:16:14;;;;;;;6.65;4.00;;;;;;;;;;5044659;28;20056;-69
2022/03/14 13:18:53;;;;;;;7.97;3.53;;;;;;;;;;5046164;28;20049;-69
2022/03/14 13:21:23;;;;;;;4.82;3.42;;;;;;;;;;5043971;28;20156;-69
2022/03/14 13:24:07;;;;;;;8.23;3.92;;;;;;;;;;5043264;28;20049;-69
2022/03/14 13:26:37;;;;;;;5.20;3.83;;;;;;;;;;5033558;28;20063;-71
2022/03/14 13:29:07;;;;;;;8.27;4.25;;;;;;;;;;5042552;28;20500;-69
2022/03/14 13:31:40;;;;;;;6.75;4.03;;;;;;;;;;5032499;28;20068;-71
2022/03/14 13:34:11;;;;;;;8.43;5.05;;;;;;;;;;5041156;28;20036;-72
2022/03/14 13:36:52;;;;;;;8.02;5.00;;;;;;;;;;5043495;28;20065;-69
2022/03/14 13:39:23;;;;;;;9.95;4.80;;;;;;;;;;5025473;28;20519;-69
2022/03/14 13:41:51;;;;;;;6.53;4.75;;;;;;;;;;5040536;28;20072;-68
2022/03/14 13:44:20;;;;;;;9.35;5.03;;;;;;;;;;5044186;28;20029;-69
2022/03/14 13:46:52;;;;;;;5.65;5.03;;;;;;;;;;5042114;28;20110;-69
2022/03/14 13:49:26;;;;;;;5.00;4.32;;;;;;;;;;5038574;28;20110;-71
2022/03/14 13:52:02;;;;;;;6.78;4.30;;;;;;;;;;5040164;28;20096;-72
2022/03/14 13:54:29;;;;;;;5.88;3.95;;;;;;;;;;5038417;28;20037;-72
2022/03/14 13:57:02;;;;;;;5.40;4.00;;;;;;;;;;5046801;28;20452;-68
2022/03/14 13:59:48;;;;;;;5.55;4.10;;;;;;;;;;5045039;28;20068;-71
2022/03/14 14:02:21;;;;;;;7.05;4.53;;;;;;;;;;5026792;28;20045;-68
2022/03/14 14:04:51;;;;;;;8.07;4.47;;;;;;;;;;5060726;28;20068;-69
2022/03/14 14:07:21;;;;;;;11.05;4.80;;;;;;;;;;5071975;28;20040;-72
2022/03/14 14:10:11;;;;;;;8.95;4.65;;;;;;;;;;5032864;28;20061;-69
2022/03/14 14:12:41;;;;;;;8.13;4.85;;;;;;;;;;5031578;28;20049;-70
2022/03/14 14:15:11;;;;;;;8.45;5.00;;;;;;;;;;5042237;28;20049;-72
2022/03/14 14:17:46;;;;;;;8.73;4.35;;;;;;;;;;5036810;28;20057;-70
2022/03/14 14:20:15;;;;;;;7.53;4.63;;;;;;;;;;5058994;28;20446;-69
2022/03/14 14:22:53;;;;;;;9.32;4.78;;;;;;;;;;5042424;28;20045;-69
2022/03/14 14:25:29;;;;;;;8.07;5.03;;;;;;;;;;5031176;28;20034;-68
2022/03/14 14:28:03;;;;;;;5.18;4.22;;;;;;;;;;5045908;28;20082;-72
2022/03/14 14:30:42;;;;;;;7.13;4.72;;;;;;;;;;5055529;28;20120;-72
2022/03/14 14:33:12;;;;;;;13.05;7.95;;;;;;;;;;5054944;28;20045;-72
2022/03/14 14:35:40;;;;;;;7.70;4.68;;;;;;;;;;5056822;28;20037;-69
2022/03/14 14:38:09;;;;;;;5.47;4.32;;;;;;;;;;5067964;28;20040;-70
2022/03/14 14:40:43;;;;;;;5.57;4.38;;;;;;;;;;5069964;28;20060;-73
2022/03/14 14:43:11;;;;;;;9.88;4.45;;;;;;;;;;5069980;28;20105;-72
2022/03/14 14:45:40;;;;;;;6.43;4.57;;;;;;;;;;5075800;28;20406;-74
2022/03/14 14:48:08;;;;;;;15.50;13.50;;;;;;;;;;5075169;28;20040;-74
2022/03/14 14:50:38;;;;;;;9.57;6.25;;;;;;;;;;5074735;28;20060;-70
2022/03/14 14:53:07;;;;;;;11.95;4.75;;;;;;;;;;5073176;28;20041;-73
2022/03/14 14:55:34;;;;;;;6.65;4.25;;;;;;;;;;5052657;28;20035;-73
2022/03/14 14:58:02;;;;;;;5.45;3.88;;;;;;;;;;5051270;28;20117;-73